createdAt,value
2023-01-30T00:01:19.345Z,4.80
2023-01-30T00:03:47.272Z,6.47
2023-01-30T00:06:15.772Z,3.97
2023-01-30T00:08:43.648Z,4.83
2023-01-30T00:11:13.230Z,5.60
2023-01-30T00:13:42.337Z,5.43
2023-01-30T00:16:12.066Z,5.10
2023-01-30T00:18:41.306Z,7.17
2023-01-30T00:21:11.395Z,5.27
2023-01-30T00:23:39.730Z,5.10
2023-01-30T00:26:08.595Z,4.93
2023-01-30T00:28:36.706Z,4.77
2023-01-30T00:31:04.749Z,3.80
2023-01-30T00:33:33.999Z,6.13
2023-01-30T00:36:03.003Z,4.90
2023-01-30T00:38:30.920Z,4.67
2023-01-30T00:40:58.793Z,4.13
2023-01-30T00:43:44.315Z,4.57
2023-01-30T00:46:34.774Z,4.83
2023-01-30T00:49:04.026Z,6.07
2023-01-30T00:51:31.881Z,4.13
2023-01-30T00:53:59.852Z,5.53
2023-01-30T00:56:27.709Z,5.03
2023-01-30T00:58:55.570Z,4.60
2023-01-30T01:01:23.442Z,6.23
2023-01-30T01:03:51.391Z,4.03
2023-01-30T01:06:20.699Z,4.37
2023-01-30T01:08:48.560Z,4.80
2023-01-30T01:11:24.451Z,5.57
2023-01-30T01:13:55.382Z,5.87
2023-01-30T01:16:23.811Z,3.87
2023-01-30T01:18:52.155Z,4.27
2023-01-30T01:21:21.818Z,5.70
2023-01-30T01:23:51.699Z,4.30
2023-01-30T01:26:19.781Z,4.10
2023-01-30T01:28:47.686Z,4.27
2023-01-30T01:31:17.940Z,3.63
2023-01-30T01:33:45.923Z,5.10
2023-01-30T01:36:29.302Z,4.80
2023-01-30T01:39:04.310Z,4.83
2023-01-30T01:41:31.503Z,3.80
2023-01-30T01:44:02.674Z,5.27
2023-01-30T01:46:34.286Z,3.80
2023-01-30T01:49:06.695Z,4.40
2023-01-30T01:51:38.799Z,3.83
2023-01-30T01:54:12.032Z,5.33
2023-01-30T01:56:43.972Z,4.90
2023-01-30T01:59:17.723Z,5.23
2023-01-30T02:01:45.550Z,4.50
2023-01-30T02:04:13.791Z,5.90
2023-01-30T02:06:42.799Z,4.23
2023-01-30T02:09:12.366Z,4.10
2023-01-30T02:11:46.076Z,4.27
2023-01-30T02:14:15.496Z,4.37
2023-01-30T02:16:45.155Z,3.80
2023-01-30T02:19:24.091Z,4.53
2023-01-30T02:22:16.719Z,5.30
2023-01-30T02:25:30.754Z,4.43
2023-01-30T02:28:19.029Z,4.47
2023-01-30T02:31:16.832Z,4.70
2023-01-30T02:33:56.502Z,3.80
2023-01-30T02:36:32.525Z,3.63
2023-01-30T02:39:08.620Z,3.93
2023-01-30T02:41:44.048Z,3.90
2023-01-30T02:44:18.768Z,5.60
2023-01-30T02:46:54.227Z,4.10
2023-01-30T02:49:27.842Z,4.33
2023-01-30T02:51:58.858Z,4.13
2023-01-30T02:54:26.768Z,5.07
2023-01-30T02:56:57.943Z,4.30
2023-01-30T02:59:31.033Z,3.90
2023-01-30T03:02:27.927Z,4.60
2023-01-30T03:05:22.052Z,4.13
2023-01-30T03:07:56.566Z,3.87
2023-01-30T03:10:34.255Z,3.80
2023-01-30T03:13:11.056Z,3.70
2023-01-30T03:15:43.841Z,5.30
2023-01-30T03:18:13.251Z,4.23
2023-01-30T03:20:42.309Z,4.50
2023-01-30T03:23:10.227Z,4.17
2023-01-30T03:25:40.601Z,4.10
2023-01-30T03:28:09.383Z,3.70
2023-01-30T03:30:37.312Z,4.73
2023-01-30T03:33:05.311Z,5.70
2023-01-30T03:35:34.627Z,3.30
2023-01-30T03:38:02.506Z,3.63
2023-01-30T03:40:30.587Z,3.63
2023-01-30T03:42:58.459Z,5.70
2023-01-30T03:45:26.399Z,3.60
2023-01-30T03:47:54.304Z,4.00
2023-01-30T03:50:22.159Z,3.50
2023-01-30T03:52:51.404Z,3.33
2023-01-30T03:55:19.580Z,3.07
2023-01-30T03:57:47.931Z,4.47
2023-01-30T04:00:16.833Z,3.63
2023-01-30T04:02:44.816Z,3.30
2023-01-30T04:05:12.691Z,4.00
2023-01-30T04:07:40.522Z,3.03
2023-01-30T04:10:11.120Z,4.10
2023-01-30T04:12:38.966Z,3.50
2023-01-30T04:15:07.881Z,4.10
2023-01-30T04:17:35.756Z,3.93
2023-01-30T04:20:03.789Z,3.37
2023-01-30T04:22:31.779Z,3.53
2023-01-30T04:24:59.673Z,3.83
2023-01-30T04:27:28.896Z,3.47
2023-01-30T04:29:56.768Z,3.07
2023-01-30T04:32:26.461Z,3.67
2023-01-30T04:34:54.325Z,3.47
2023-01-30T04:37:22.334Z,3.47
2023-01-30T04:39:50.230Z,3.43
2023-01-30T04:42:18.151Z,3.43
2023-01-30T04:44:47.354Z,3.63
2023-01-30T04:47:15.270Z,3.87
2023-01-30T04:49:43.151Z,4.67
2023-01-30T04:52:11.040Z,3.17
2023-01-30T04:54:38.869Z,2.77
2023-01-30T04:57:06.712Z,3.00
2023-01-30T04:59:34.561Z,3.40
2023-01-30T05:02:03.819Z,3.90
2023-01-30T05:04:31.720Z,3.30
2023-01-30T05:06:59.566Z,3.37
2023-01-30T05:09:27.431Z,3.70
2023-01-30T05:11:55.288Z,3.27
2023-01-30T05:14:23.191Z,3.10
2023-01-30T05:16:51.109Z,2.83
2023-01-30T05:19:20.483Z,3.20
2023-01-30T05:21:48.400Z,3.70
2023-01-30T05:24:16.277Z,3.60
2023-01-30T05:26:44.204Z,3.00
2023-01-30T05:29:12.106Z,3.87
2023-01-30T05:31:40.042Z,2.70
2023-01-30T05:34:07.936Z,2.40
2023-01-30T05:36:37.148Z,3.23
2023-01-30T05:39:05.200Z,5.67
2023-01-30T05:41:33.033Z,2.90
2023-01-30T05:44:00.908Z,3.10
2023-01-30T05:46:28.863Z,3.30
2023-01-30T05:48:56.883Z,2.80
2023-01-30T05:51:26.557Z,2.93
2023-01-30T05:53:55.768Z,3.00
2023-01-30T05:56:24.222Z,4.10
2023-01-30T05:58:53.022Z,3.00
2023-01-30T06:01:21.386Z,2.70
2023-01-30T06:03:49.309Z,3.10
2023-01-30T06:06:17.226Z,3.20
2023-01-30T06:08:45.631Z,2.63
2023-01-30T06:11:16.120Z,4.00
2023-01-30T06:13:44.207Z,3.03
2023-01-30T06:16:14.131Z,3.47
2023-01-30T06:18:42.173Z,3.20
2023-01-30T06:21:10.938Z,2.90
2023-01-30T06:23:39.027Z,3.33
2023-01-30T06:26:09.088Z,2.93
2023-01-30T06:28:38.852Z,3.60
2023-01-30T06:31:08.435Z,3.57
2023-01-30T06:33:36.838Z,3.20
2023-01-30T06:36:05.264Z,4.17
2023-01-30T06:38:33.199Z,2.77
2023-01-30T06:41:01.064Z,3.47
2023-01-30T06:43:28.927Z,2.80
2023-01-30T06:45:59.847Z,2.90
2023-01-30T06:48:27.884Z,3.40
2023-01-30T06:50:55.750Z,3.00
2023-01-30T06:53:30.069Z,3.53
2023-01-30T06:55:58.362Z,2.53
2023-01-30T06:58:26.915Z,2.40
2023-01-30T07:00:54.906Z,2.83
2023-01-30T07:03:24.204Z,2.53
2023-01-30T07:05:52.580Z,2.50
2023-01-30T07:08:22.087Z,2.50
2023-01-30T07:10:51.085Z,4.00
2023-01-30T07:13:18.954Z,2.57
2023-01-30T07:15:47.303Z,3.90
2023-01-30T07:18:15.170Z,3.30
2023-01-30T07:20:48.128Z,3.30
2023-01-30T07:23:16.119Z,3.23
2023-01-30T07:25:43.993Z,2.70
2023-01-30T07:28:12.087Z,2.03
2023-01-30T07:30:39.984Z,3.07
2023-01-30T07:33:08.170Z,2.80
2023-01-30T07:35:38.017Z,3.47
2023-01-30T07:38:07.378Z,3.80
2023-01-30T07:40:35.343Z,2.47
2023-01-30T07:43:05.115Z,3.00
2023-01-30T07:45:37.663Z,2.33
2023-01-30T07:48:05.573Z,2.60
2023-01-30T07:50:33.590Z,2.37
2023-01-30T07:53:04.465Z,3.50
2023-01-30T07:55:33.715Z,3.60
2023-01-30T07:58:01.653Z,2.60
2023-01-30T08:00:29.824Z,2.83
2023-01-30T08:02:57.690Z,2.87
2023-01-30T08:05:25.632Z,3.30
2023-01-30T08:07:53.682Z,2.40
2023-01-30T08:10:21.738Z,2.40
2023-01-30T08:12:52.476Z,2.37
2023-01-30T08:15:22.757Z,3.40
2023-01-30T08:17:56.043Z,3.00
2023-01-30T08:20:24.656Z,2.90
2023-01-30T08:22:52.572Z,2.53
2023-01-30T08:25:20.684Z,3.20
2023-01-30T08:27:48.656Z,2.67
2023-01-30T08:30:19.147Z,2.90
2023-01-30T08:32:47.288Z,2.83
2023-01-30T08:35:15.514Z,2.53
2023-01-30T08:37:43.712Z,2.30
2023-01-30T08:40:12.850Z,2.73
2023-01-30T08:42:41.019Z,2.43
2023-01-30T08:45:09.640Z,2.43
2023-01-30T08:47:38.928Z,2.57
2023-01-30T08:50:07.527Z,3.60
2023-01-30T08:52:35.455Z,2.80
2023-01-30T08:55:03.512Z,2.87
2023-01-30T08:57:32.524Z,3.40
2023-01-30T09:00:00.760Z,3.80
2023-01-30T09:02:28.640Z,2.23
2023-01-30T09:04:57.922Z,2.30
2023-01-30T09:07:25.983Z,2.60
2023-01-30T09:09:53.846Z,2.23
2023-01-30T09:12:21.765Z,3.10
2023-01-30T09:14:49.646Z,2.53
2023-01-30T09:17:17.521Z,2.50
2023-01-30T09:19:45.458Z,2.90
2023-01-30T09:22:14.643Z,2.50
2023-01-30T09:24:42.498Z,3.63
2023-01-30T09:27:10.404Z,3.17
2023-01-30T09:29:38.288Z,2.30
2023-01-30T09:32:06.350Z,3.07
2023-01-30T09:34:34.245Z,3.40
2023-01-30T09:37:04.839Z,2.33
2023-01-30T09:39:34.796Z,2.30
2023-01-30T09:42:23.647Z,2.30
2023-01-30T09:45:24.008Z,2.60
2023-01-30T09:48:03.393Z,2.60
2023-01-30T09:50:48.952Z,2.27
2023-01-30T09:53:25.659Z,2.50
2023-01-30T09:55:54.873Z,2.70
2023-01-30T09:58:25.414Z,2.40
2023-01-30T10:00:57.906Z,2.23
2023-01-30T10:03:31.087Z,2.93
2023-01-30T10:06:05.396Z,2.93
2023-01-30T10:08:44.126Z,3.27
2023-01-30T10:11:24.592Z,2.63
2023-01-30T10:14:10.672Z,2.17
2023-01-30T10:16:45.847Z,2.60
2023-01-30T10:19:40.183Z,2.33
2023-01-30T10:22:22.191Z,2.20
2023-01-30T10:25:00.946Z,2.20
2023-01-30T10:27:32.138Z,2.30
2023-01-30T10:30:03.584Z,3.40
2023-01-30T10:32:36.952Z,1.80
2023-01-30T10:35:14.637Z,2.63
2023-01-30T10:37:49.388Z,2.93
2023-01-30T10:40:24.237Z,2.00
2023-01-30T10:43:01.705Z,2.40
2023-01-30T10:45:36.667Z,2.50
2023-01-30T10:48:31.432Z,1.90
2023-01-30T10:51:22.488Z,2.27
2023-01-30T10:53:57.108Z,2.53
2023-01-30T10:56:34.809Z,2.97
2023-01-30T10:59:12.540Z,2.60
2023-01-30T11:01:46.091Z,2.10
2023-01-30T11:04:24.977Z,2.70
2023-01-30T11:06:54.373Z,2.00
2023-01-30T11:09:24.376Z,2.27
2023-01-30T11:11:53.784Z,2.27
2023-01-30T11:14:23.401Z,2.20
2023-01-30T11:16:54.242Z,2.00
2023-01-30T11:19:25.944Z,2.20
2023-01-30T11:21:57.537Z,2.50
2023-01-30T11:24:32.042Z,2.03
2023-01-30T11:27:11.827Z,2.53
2023-01-30T11:29:41.353Z,3.10
2023-01-30T11:32:16.598Z,2.63
2023-01-30T11:34:45.511Z,2.00
2023-01-30T11:37:15.977Z,1.77
2023-01-30T11:39:51.326Z,2.33
2023-01-30T11:42:21.355Z,2.13
2023-01-30T11:45:10.737Z,1.97
2023-01-30T11:47:57.518Z,2.57
2023-01-30T11:50:37.194Z,2.10
2023-01-30T11:53:21.659Z,2.67
2023-01-30T11:56:02.246Z,1.83
2023-01-30T11:58:33.747Z,2.23
2023-01-30T12:01:04.172Z,2.17
2023-01-30T12:03:34.458Z,2.10
2023-01-30T12:06:02.448Z,2.10
2023-01-30T12:08:44.323Z,1.87
2023-01-30T12:11:31.844Z,2.30
2023-01-30T12:14:16.006Z,2.13
2023-01-30T12:16:56.754Z,2.00
2023-01-30T12:19:46.381Z,1.77
2023-01-30T12:22:22.729Z,1.70
2023-01-30T12:24:59.916Z,2.00
2023-01-30T12:27:39.308Z,2.07
2023-01-30T12:30:20.044Z,2.40
2023-01-30T12:32:49.609Z,2.00
2023-01-30T12:35:19.589Z,1.93
2023-01-30T12:38:00.131Z,2.07
2023-01-30T12:40:40.885Z,1.90
2023-01-30T12:43:34.062Z,2.00
2023-01-30T12:46:12.006Z,2.03
2023-01-30T12:49:20.174Z,3.60
2023-01-30T12:52:03.434Z,2.43
2023-01-30T12:54:44.977Z,2.33
2023-01-30T12:57:27.687Z,1.67
2023-01-30T13:00:07.379Z,2.03
2023-01-30T13:02:48.163Z,2.07
2023-01-30T13:05:30.469Z,2.03
2023-01-30T13:08:33.469Z,1.70
2023-01-30T13:11:12.900Z,1.80
2023-01-30T13:13:50.026Z,1.90
2023-01-30T13:16:28.280Z,2.87
2023-01-30T13:19:01.139Z,1.70
2023-01-30T13:21:35.868Z,1.83
2023-01-30T13:24:18.268Z,1.40
2023-01-30T13:26:47.895Z,2.97
2023-01-30T13:29:21.572Z,2.20
2023-01-30T13:31:53.905Z,4.57
2023-01-30T13:34:29.347Z,1.60
2023-01-30T13:37:04.906Z,2.27
2023-01-30T13:39:42.591Z,1.90
2023-01-30T13:42:19.065Z,1.70
2023-01-30T13:44:49.038Z,1.80
2023-01-30T13:47:28.990Z,2.30
2023-01-30T13:50:07.498Z,2.10
2023-01-30T13:52:44.008Z,2.20
2023-01-30T13:55:26.025Z,2.53
2023-01-30T13:58:00.529Z,1.83
2023-01-30T14:00:31.643Z,2.07
2023-01-30T14:03:26.343Z,1.80
2023-01-30T14:06:40.700Z,1.90
2023-01-30T14:09:24.721Z,1.70
2023-01-30T14:11:58.965Z,2.10
2023-01-30T14:14:33.131Z,1.77
2023-01-30T14:17:11.841Z,2.00
2023-01-30T14:19:46.453Z,2.67
2023-01-30T14:22:24.300Z,2.27
2023-01-30T14:25:33.625Z,2.03
2023-01-30T14:28:34.086Z,2.80
2023-01-30T14:31:04.481Z,3.80
2023-01-30T14:33:35.423Z,2.10
2023-01-30T14:36:35.634Z,1.60
2023-01-30T14:39:39.441Z,1.70
2023-01-30T14:42:20.347Z,1.87
2023-01-30T14:45:03.334Z,1.97
2023-01-30T14:47:46.658Z,1.80
2023-01-30T14:50:21.580Z,2.03
2023-01-30T14:52:50.503Z,1.80
2023-01-30T14:55:21.916Z,1.80
2023-01-30T14:57:55.905Z,1.90
2023-01-30T15:00:29.150Z,1.93
2023-01-30T15:03:01.408Z,2.00
2023-01-30T15:05:33.441Z,1.77
2023-01-30T15:08:07.691Z,3.30
2023-01-30T15:10:52.635Z,2.20
2023-01-30T15:13:43.447Z,1.93
2023-01-30T15:16:25.293Z,2.17
2023-01-30T15:19:15.660Z,2.00
2023-01-30T15:21:52.920Z,1.90
2023-01-30T15:24:45.465Z,1.70
2023-01-30T15:27:19.460Z,2.20
2023-01-30T15:30:07.423Z,2.70
2023-01-30T15:32:35.356Z,1.70
2023-01-30T15:35:21.743Z,1.83
2023-01-30T15:37:51.532Z,2.20
2023-01-30T15:40:22.602Z,2.03
2023-01-30T15:42:53.526Z,1.60
2023-01-30T15:45:31.197Z,1.87
2023-01-30T15:48:30.626Z,2.37
2023-01-30T15:51:01.404Z,2.07
2023-01-30T15:53:32.175Z,1.90
2023-01-30T15:56:02.807Z,1.80
2023-01-30T15:58:32.775Z,1.50
2023-01-30T16:01:02.366Z,1.60
2023-01-30T16:03:34.361Z,2.30
2023-01-30T16:06:03.975Z,2.00
2023-01-30T16:08:33.976Z,1.90
2023-01-30T16:11:02.130Z,2.23
2023-01-30T16:13:33.115Z,2.10
2023-01-30T16:16:04.652Z,1.60
2023-01-30T16:18:39.033Z,1.80
2023-01-30T16:21:10.961Z,1.80
2023-01-30T16:23:42.790Z,1.90
2023-01-30T16:26:17.349Z,1.83
2023-01-30T16:28:46.188Z,2.20
2023-01-30T16:31:14.327Z,1.93
2023-01-30T16:33:42.360Z,1.80
2023-01-30T16:36:33.947Z,2.30
2023-01-30T16:39:01.874Z,2.30
2023-01-30T16:41:31.688Z,2.17
2023-01-30T16:44:11.404Z,1.80
2023-01-30T16:46:48.770Z,1.50
2023-01-30T16:49:21.105Z,2.00
2023-01-30T16:51:51.961Z,1.77
2023-01-30T16:54:24.298Z,1.97
2023-01-30T16:56:55.114Z,1.93
2023-01-30T16:59:31.894Z,1.80
2023-01-30T17:02:01.728Z,2.30
2023-01-30T17:04:32.064Z,1.87
2023-01-30T17:07:04.038Z,1.70
2023-01-30T17:09:44.501Z,2.20
2023-01-30T17:12:37.019Z,1.90
2023-01-30T17:15:31.137Z,2.17
2023-01-30T17:17:59.211Z,1.50
2023-01-30T17:20:38.547Z,1.87
2023-01-30T17:23:10.666Z,2.10
2023-01-30T17:25:42.829Z,2.50
2023-01-30T17:28:17.794Z,2.40
2023-01-30T17:30:45.893Z,1.73
2023-01-30T17:33:13.825Z,1.80
2023-01-30T17:35:41.763Z,2.00
2023-01-30T17:38:12.992Z,2.17
2023-01-30T17:40:41.472Z,1.70
2023-01-30T17:43:11.556Z,2.53
2023-01-30T17:45:39.515Z,1.90
2023-01-30T17:48:08.456Z,1.80
2023-01-30T17:50:36.593Z,1.60
2023-01-30T17:53:07.174Z,1.63
2023-01-30T17:55:36.750Z,1.97
2023-01-30T17:58:05.161Z,2.10
2023-01-30T18:00:33.130Z,1.90
2023-01-30T18:03:01.091Z,1.80
2023-01-30T18:05:29.058Z,2.30
2023-01-30T18:07:56.921Z,1.60
2023-01-30T18:10:25.151Z,3.13
2023-01-30T18:12:54.361Z,1.70
2023-01-30T18:15:23.479Z,1.90
2023-01-30T18:17:54.939Z,2.20
2023-01-30T18:20:23.215Z,2.00
2023-01-30T18:22:51.053Z,1.87
2023-01-30T18:25:19.316Z,2.00
2023-01-30T18:27:48.070Z,1.80
2023-01-30T18:30:18.459Z,1.83
2023-01-30T18:32:53.013Z,2.17
2023-01-30T18:35:22.137Z,1.60
2023-01-30T18:37:50.828Z,1.80
2023-01-30T18:40:19.627Z,1.93
2023-01-30T18:42:47.777Z,1.50
2023-01-30T18:45:17.129Z,1.50
2023-01-30T18:47:45.114Z,1.70
2023-01-30T18:50:13.161Z,2.00
2023-01-30T18:52:41.075Z,1.77
2023-01-30T18:55:09.545Z,3.10
2023-01-30T18:57:37.471Z,1.53
2023-01-30T19:00:06.374Z,1.80
2023-01-30T19:02:35.768Z,2.37
2023-01-30T19:05:03.733Z,1.83
2023-01-30T19:07:31.601Z,1.90
2023-01-30T19:09:59.724Z,2.50
2023-01-30T19:12:45.160Z,2.17
2023-01-30T19:15:13.086Z,2.13
2023-01-30T19:17:42.324Z,2.73
2023-01-30T19:20:12.070Z,1.90
2023-01-30T19:22:40.402Z,2.67
2023-01-30T19:25:09.267Z,1.80
2023-01-30T19:27:38.269Z,2.20
2023-01-30T19:30:07.418Z,2.47
2023-01-30T19:32:35.360Z,1.90
2023-01-30T19:35:05.026Z,3.20
2023-01-30T19:37:32.965Z,3.07
2023-01-30T19:40:00.872Z,2.17
2023-01-30T19:42:28.730Z,1.70
2023-01-30T19:44:56.982Z,2.97
2023-01-30T19:47:24.891Z,1.50
2023-01-30T19:49:53.894Z,1.80
2023-01-30T19:52:23.195Z,2.03
2023-01-30T19:54:51.312Z,1.93
2023-01-30T19:57:19.173Z,1.60
2023-01-30T19:59:47.098Z,2.03
2023-01-30T20:02:14.931Z,1.97
2023-01-30T20:04:42.787Z,1.70
2023-01-30T20:07:10.662Z,2.13
2023-01-30T20:09:39.945Z,1.50
2023-01-30T20:12:08.465Z,2.67
2023-01-30T20:14:36.322Z,1.77
2023-01-30T20:17:04.258Z,1.60
2023-01-30T20:19:32.116Z,1.50
2023-01-30T20:22:00.095Z,3.20
2023-01-30T20:24:28.124Z,1.70
2023-01-30T20:26:57.458Z,2.07
2023-01-30T20:29:25.374Z,2.07
2023-01-30T20:31:54.424Z,3.00
2023-01-30T20:34:22.693Z,1.73
2023-01-30T20:36:50.727Z,1.87
2023-01-30T20:39:20.754Z,1.93
2023-01-30T20:41:48.701Z,2.23
2023-01-30T20:44:18.453Z,1.90
2023-01-30T20:46:49.656Z,2.27
2023-01-30T20:49:19.757Z,1.63
2023-01-30T20:51:50.079Z,2.30
2023-01-30T20:54:19.572Z,2.57
2023-01-30T20:56:49.693Z,2.13
2023-01-30T20:59:20.552Z,2.00
2023-01-30T21:01:48.475Z,2.00
2023-01-30T21:04:18.174Z,2.33
2023-01-30T21:06:47.245Z,1.67
2023-01-30T21:09:17.786Z,1.63
2023-01-30T21:11:46.447Z,2.33
2023-01-30T21:14:14.759Z,2.13
2023-01-30T21:16:44.648Z,2.10
2023-01-30T21:19:15.131Z,1.73
2023-01-30T21:21:46.478Z,2.20
2023-01-30T21:24:15.830Z,2.37
2023-01-30T21:26:46.249Z,2.10
2023-01-30T21:29:15.729Z,2.00
2023-01-30T21:31:45.750Z,2.23
2023-01-30T21:34:14.728Z,2.10
2023-01-30T21:36:42.895Z,2.00
2023-01-30T21:39:32.381Z,2.03
2023-01-30T21:42:17.914Z,2.67
2023-01-30T21:44:45.771Z,1.93
2023-01-30T21:47:15.007Z,1.73
2023-01-30T21:49:43.979Z,2.43
2023-01-30T21:52:11.933Z,2.90
2023-01-30T21:54:40.109Z,2.20
2023-01-30T21:57:08.050Z,1.70
2023-01-30T21:59:36.503Z,2.13
2023-01-30T22:02:04.515Z,2.10
2023-01-30T22:04:36.563Z,1.80
2023-01-30T22:07:06.719Z,2.60
2023-01-30T22:09:35.027Z,2.07
2023-01-30T22:12:03.165Z,3.10
2023-01-30T22:14:33.182Z,2.57
2023-01-30T22:17:01.233Z,2.10
2023-01-30T22:19:35.016Z,2.13
2023-01-30T22:22:04.333Z,1.83
2023-01-30T22:24:32.546Z,1.90
2023-01-30T22:27:00.469Z,2.00
2023-01-30T22:29:29.155Z,2.00
2023-01-30T22:31:57.116Z,1.90
2023-01-30T22:34:25.033Z,2.93
2023-01-30T22:36:53.133Z,1.60
2023-01-30T22:39:22.376Z,3.43
2023-01-30T22:41:50.225Z,1.70
2023-01-30T22:44:18.091Z,1.53
2023-01-30T22:46:46.043Z,1.60
2023-01-30T22:49:13.940Z,1.90
2023-01-30T22:51:43.469Z,2.80
2023-01-30T22:54:15.680Z,2.90
2023-01-30T22:56:47.131Z,2.63
2023-01-30T22:59:15.841Z,3.57
2023-01-30T23:01:45.871Z,3.03
2023-01-30T23:04:15.362Z,2.07
2023-01-30T23:06:43.815Z,2.30
2023-01-30T23:09:15.315Z,1.90
2023-01-30T23:12:06.836Z,2.27
2023-01-30T23:14:35.721Z,2.10
2023-01-30T23:17:25.249Z,2.00
2023-01-30T23:19:52.588Z,1.63
2023-01-30T23:22:20.466Z,2.73
2023-01-30T23:24:48.973Z,1.83
2023-01-30T23:27:18.226Z,1.87
2023-01-30T23:29:46.048Z,2.60
2023-01-30T23:32:14.894Z,1.83
2023-01-30T23:34:42.805Z,2.03
2023-01-30T23:37:10.705Z,1.83
2023-01-30T23:39:38.924Z,2.37
2023-01-30T23:42:06.817Z,2.07
2023-01-30T23:44:36.406Z,1.77
2023-01-30T23:47:04.375Z,1.90
2023-01-30T23:49:32.216Z,2.07
2023-01-30T23:52:00.045Z,3.80
2023-01-30T23:54:28.198Z,2.10
2023-01-30T23:56:56.104Z,1.90
2023-01-30T23:59:23.959Z,1.70
